createdAt,value
2022-08-26T00:01:56.987Z,20.00
2022-08-26T00:04:25.999Z,20.00
2022-08-26T00:06:54.694Z,19.90
2022-08-26T00:09:24.818Z,19.90
2022-08-26T00:11:52.736Z,19.90
2022-08-26T00:14:20.433Z,19.80
2022-08-26T00:16:48.744Z,19.80
2022-08-26T00:19:18.349Z,19.70
2022-08-26T00:21:49.681Z,19.70
2022-08-26T00:24:18.884Z,19.70
2022-08-26T00:26:46.150Z,19.70
2022-08-26T00:29:13.234Z,19.70
2022-08-26T00:31:40.490Z,19.70
2022-08-26T00:34:09.370Z,19.70
2022-08-26T00:36:43.509Z,19.70
2022-08-26T00:39:21.991Z,19.70
2022-08-26T00:42:00.023Z,19.60
2022-08-26T00:44:27.135Z,19.60
2022-08-26T00:47:00.883Z,19.60
2022-08-26T00:49:47.998Z,19.60
2022-08-26T00:52:26.279Z,19.60
2022-08-26T00:55:03.654Z,19.50
2022-08-26T00:57:32.736Z,19.40
2022-08-26T01:00:03.141Z,19.40
2022-08-26T01:02:32.641Z,19.30
2022-08-26T01:05:04.222Z,19.30
2022-08-26T01:07:34.828Z,19.30
2022-08-26T01:10:06.827Z,19.30
2022-08-26T01:12:40.305Z,19.30
2022-08-26T01:15:11.523Z,19.30
2022-08-26T01:17:41.144Z,19.30
2022-08-26T01:20:35.404Z,19.30
2022-08-26T01:23:11.811Z,19.30
2022-08-26T01:25:47.736Z,19.30
2022-08-26T01:31:41.791Z,19.20
2022-08-26T01:34:16.841Z,19.20
2022-08-26T01:36:47.921Z,19.20
2022-08-26T01:39:18.328Z,19.20
2022-08-26T01:41:46.681Z,19.20
2022-08-26T01:44:24.281Z,19.20
2022-08-26T01:46:53.472Z,19.20
2022-08-26T01:49:22.209Z,19.20
2022-08-26T01:51:52.657Z,19.20
2022-08-26T01:54:20.596Z,19.20
2022-08-26T01:56:51.656Z,19.20
2022-08-26T01:59:21.335Z,19.20
2022-08-26T02:01:50.775Z,19.20
2022-08-26T02:04:29.019Z,19.20
2022-08-26T02:06:59.304Z,19.20
2022-08-26T02:09:26.427Z,19.20
2022-08-26T02:11:54.430Z,19.10
2022-08-26T02:14:35.093Z,19.10
2022-08-26T02:17:11.374Z,19.10
2022-08-26T02:19:41.937Z,19.10
2022-08-26T02:22:14.157Z,19.00
2022-08-26T02:24:57.964Z,19.10
2022-08-26T02:27:32.828Z,19.00
2022-08-26T02:30:12.850Z,18.90
2022-08-26T02:32:42.774Z,18.90
2022-08-26T02:35:11.547Z,18.90
2022-08-26T02:37:41.850Z,18.90
2022-08-26T02:40:12.556Z,18.90
2022-08-26T02:42:39.384Z,18.90
2022-08-26T02:45:07.585Z,18.90
2022-08-26T02:47:35.738Z,19.00
2022-08-26T02:50:03.045Z,19.00
2022-08-26T02:52:30.413Z,18.90
2022-08-26T02:54:59.153Z,18.90
2022-08-26T02:57:26.565Z,18.90
2022-08-26T02:59:57.421Z,18.80
2022-08-26T03:02:29.288Z,18.80
2022-08-26T03:05:01.950Z,18.80
2022-08-26T03:10:14.588Z,18.70
2022-08-26T03:12:41.919Z,18.70
2022-08-26T03:15:15.936Z,18.70
2022-08-26T03:17:50.375Z,18.70
2022-08-26T03:20:18.135Z,18.70
2022-08-26T03:22:45.938Z,18.60
2022-08-26T03:25:15.208Z,18.60
2022-08-26T03:27:43.191Z,18.50
2022-08-26T03:30:30.089Z,18.50
2022-08-26T03:32:57.182Z,18.50
2022-08-26T03:35:24.039Z,18.50
2022-08-26T03:37:53.114Z,18.40
2022-08-26T03:40:21.459Z,18.50
2022-08-26T03:42:49.996Z,18.40
2022-08-26T03:45:18.016Z,18.40
2022-08-26T03:47:47.775Z,18.40
2022-08-26T03:50:22.839Z,18.40
2022-08-26T03:52:54.788Z,18.40
2022-08-26T03:55:25.950Z,18.40
2022-08-26T03:57:54.547Z,18.40
2022-08-26T04:00:22.456Z,18.40
2022-08-26T04:02:51.305Z,18.50
2022-08-26T04:05:23.017Z,18.40
2022-08-26T04:07:50.711Z,18.40
2022-08-26T04:10:29.164Z,18.30
2022-08-26T04:12:58.721Z,18.30
2022-08-26T04:15:27.042Z,18.30
2022-08-26T04:17:54.477Z,18.30
2022-08-26T04:20:23.197Z,18.20
2022-08-26T04:22:50.773Z,18.20
2022-08-26T04:25:18.734Z,18.20
2022-08-26T04:27:48.323Z,18.30
2022-08-26T04:30:15.943Z,18.30
2022-08-26T04:32:43.648Z,18.30
2022-08-26T04:35:12.300Z,18.30
2022-08-26T04:37:39.097Z,18.40
2022-08-26T04:40:10.144Z,18.40
2022-08-26T04:42:37.369Z,18.40
2022-08-26T04:45:10.253Z,18.40
2022-08-26T04:47:38.621Z,18.30
2022-08-26T04:50:07.397Z,18.40
2022-08-26T04:52:36.887Z,18.40
2022-08-26T04:55:06.572Z,18.40
2022-08-26T04:57:35.384Z,18.50
2022-08-26T05:00:05.728Z,18.50
2022-08-26T05:02:32.601Z,18.60
2022-08-26T05:04:59.889Z,18.60
2022-08-26T05:07:26.939Z,18.50
2022-08-26T05:09:53.953Z,18.60
2022-08-26T05:12:25.015Z,18.60
2022-08-26T05:14:53.661Z,18.60
2022-08-26T05:17:20.608Z,18.70
2022-08-26T05:19:48.006Z,18.70
2022-08-26T05:22:17.502Z,18.80
2022-08-26T05:24:46.388Z,18.90
2022-08-26T05:27:14.141Z,18.90
2022-08-26T05:29:40.956Z,18.90
2022-08-26T05:32:08.799Z,19.00
2022-08-26T05:34:38.185Z,19.00
2022-08-26T05:37:06.540Z,19.10
2022-08-26T05:39:34.242Z,19.10
2022-08-26T05:42:01.235Z,19.10
2022-08-26T05:44:29.121Z,19.20
2022-08-26T05:47:04.369Z,19.20
2022-08-26T05:49:31.833Z,19.30
2022-08-26T05:51:59.554Z,19.30
2022-08-26T05:54:26.396Z,19.40
2022-08-26T05:56:53.218Z,19.50
2022-08-26T05:59:24.607Z,19.50
2022-08-26T06:01:53.233Z,19.60
2022-08-26T06:04:21.412Z,19.70
2022-08-26T06:06:48.571Z,19.90
2022-08-26T06:09:18.259Z,20.00
2022-08-26T06:11:45.358Z,20.20
2022-08-26T06:14:12.427Z,20.30
2022-08-26T06:16:41.508Z,20.50
2022-08-26T06:19:11.561Z,20.70
2022-08-26T06:21:41.260Z,20.90
2022-08-26T06:24:30.064Z,21.10
2022-08-26T06:27:01.881Z,21.30
2022-08-26T06:29:30.983Z,21.50
2022-08-26T06:31:58.328Z,21.60
2022-08-26T06:34:26.664Z,21.80
2022-08-26T06:36:58.790Z,21.90
2022-08-26T06:39:25.597Z,22.20
2022-08-26T06:41:52.912Z,22.30
2022-08-26T06:44:20.171Z,22.50
2022-08-26T06:46:50.240Z,22.60
2022-08-26T06:49:17.674Z,22.70
2022-08-26T06:51:44.760Z,22.90
2022-08-26T06:54:11.663Z,22.90
2022-08-26T06:56:43.826Z,22.90
2022-08-26T06:59:12.176Z,22.90
2022-08-26T07:01:45.236Z,23.00
2022-08-26T07:04:20.139Z,23.20
2022-08-26T07:06:50.297Z,23.30
2022-08-26T07:09:20.799Z,23.40
2022-08-26T07:11:48.147Z,23.40
2022-08-26T07:14:16.778Z,23.50
2022-08-26T07:16:47.521Z,23.60
2022-08-26T07:19:14.568Z,23.70
2022-08-26T07:21:44.087Z,24.00
2022-08-26T07:24:11.869Z,24.10
2022-08-26T07:26:42.862Z,24.10
2022-08-26T07:29:12.339Z,24.20
2022-08-26T07:31:42.741Z,24.20
2022-08-26T07:34:10.969Z,24.30
2022-08-26T07:36:37.855Z,24.40
2022-08-26T07:39:06.531Z,24.50
2022-08-26T07:41:33.457Z,24.50
2022-08-26T07:44:00.924Z,24.60
2022-08-26T07:46:30.229Z,24.70
2022-08-26T07:48:58.525Z,24.70
2022-08-26T07:51:27.033Z,24.60
2022-08-26T07:53:55.396Z,24.40
2022-08-26T07:56:23.290Z,24.30
2022-08-26T07:58:53.771Z,24.40
2022-08-26T08:01:23.573Z,24.50
2022-08-26T08:03:51.960Z,24.50
2022-08-26T08:06:27.243Z,24.50
2022-08-26T08:08:56.218Z,24.40
2022-08-26T08:11:24.132Z,24.20
2022-08-26T08:13:56.559Z,24.10
2022-08-26T08:16:28.194Z,24.20
2022-08-26T08:18:59.507Z,24.30
2022-08-26T08:21:28.076Z,24.40
2022-08-26T08:23:57.487Z,24.40
2022-08-26T08:26:26.027Z,24.40
2022-08-26T08:28:57.430Z,24.50
2022-08-26T08:34:16.772Z,24.60
2022-08-26T08:36:46.464Z,24.60
2022-08-26T08:39:14.341Z,24.70
2022-08-26T08:41:59.128Z,24.70
2022-08-26T08:47:03.939Z,24.70
2022-08-26T08:49:32.819Z,24.70
2022-08-26T08:52:06.706Z,24.70
2022-08-26T08:54:33.872Z,24.60
2022-08-26T08:57:49.186Z,24.70
2022-08-26T09:00:30.296Z,24.60
2022-08-26T09:03:26.772Z,24.60
2022-08-26T09:05:54.647Z,24.60
2022-08-26T09:08:29.108Z,24.60
2022-08-26T09:10:59.489Z,24.60
2022-08-26T09:13:27.558Z,24.80
2022-08-26T09:16:10.325Z,24.80
2022-08-26T09:18:46.325Z,24.80
2022-08-26T09:21:17.829Z,24.70
2022-08-26T09:23:49.269Z,24.70
2022-08-26T09:26:29.336Z,24.70
2022-08-26T09:29:01.251Z,24.60
2022-08-26T09:31:29.934Z,24.80
2022-08-26T09:34:27.625Z,24.80
2022-08-26T09:36:59.460Z,24.80
2022-08-26T09:39:37.632Z,24.90
2022-08-26T09:42:11.397Z,25.00
2022-08-26T09:44:59.494Z,25.00
2022-08-26T09:47:52.435Z,25.10
2022-08-26T09:50:36.660Z,25.00
2022-08-26T09:53:13.112Z,25.10
2022-08-26T09:55:43.112Z,25.20
2022-08-26T09:58:16.432Z,25.40
2022-08-26T10:00:55.837Z,25.60
2022-08-26T10:03:31.449Z,25.70
2022-08-26T10:06:17.412Z,25.90
2022-08-26T10:08:48.953Z,26.00
2022-08-26T10:11:39.022Z,26.20
2022-08-26T10:14:26.188Z,26.30
2022-08-26T10:17:08.452Z,26.50
2022-08-26T10:19:56.526Z,26.60
2022-08-26T10:22:41.188Z,26.70
2022-08-26T10:25:13.931Z,26.80
2022-08-26T10:28:08.170Z,27.00
2022-08-26T10:30:45.319Z,27.10
2022-08-26T10:33:15.404Z,27.10
2022-08-26T10:36:30.075Z,27.20
2022-08-26T10:38:59.668Z,27.30
2022-08-26T10:41:30.969Z,27.60
2022-08-26T10:44:00.481Z,27.80
2022-08-26T10:46:40.965Z,27.80
2022-08-26T10:49:17.979Z,28.10
2022-08-26T10:52:12.336Z,28.30
2022-08-26T10:54:49.012Z,28.40
2022-08-26T10:57:23.600Z,28.40
2022-08-26T11:00:22.942Z,28.60
2022-08-26T11:03:21.940Z,28.70
2022-08-26T11:06:20.046Z,29.00
2022-08-26T11:08:58.651Z,29.10
2022-08-26T11:11:47.956Z,28.60
2022-08-26T11:14:28.491Z,28.50
2022-08-26T11:16:57.615Z,28.60
2022-08-26T11:20:01.431Z,28.60
2022-08-26T11:22:37.919Z,28.50
2022-08-26T11:25:26.435Z,28.50
2022-08-26T11:27:59.554Z,28.50
2022-08-26T11:30:36.816Z,28.40
2022-08-26T11:33:03.888Z,28.40
2022-08-26T11:35:34.652Z,28.20
2022-08-26T11:38:25.306Z,28.00
2022-08-26T11:41:09.323Z,28.00
2022-08-26T11:43:37.719Z,28.20
2022-08-26T11:46:12.711Z,28.20
2022-08-26T11:48:43.069Z,28.10
2022-08-26T11:51:24.498Z,28.00
2022-08-26T11:53:51.842Z,27.60
2022-08-26T11:56:31.747Z,27.60
2022-08-26T11:59:01.404Z,27.70
2022-08-26T12:01:37.982Z,27.90
2022-08-26T12:04:08.288Z,27.90
2022-08-26T12:06:45.354Z,27.90
2022-08-26T12:09:21.365Z,28.00
2022-08-26T12:11:48.197Z,28.10
2022-08-26T12:14:25.583Z,28.10
2022-08-26T12:16:54.848Z,28.10
2022-08-26T12:19:32.880Z,28.10
2022-08-26T12:22:29.623Z,28.10
2022-08-26T12:25:01.834Z,28.20
2022-08-26T12:27:34.353Z,28.20
2022-08-26T12:30:06.839Z,28.30
2022-08-26T12:32:39.028Z,28.40
2022-08-26T12:35:24.647Z,28.50
2022-08-26T12:37:53.950Z,28.60
2022-08-26T12:40:41.659Z,28.70
2022-08-26T12:43:09.947Z,28.90
2022-08-26T12:45:44.108Z,29.00
2022-08-26T12:48:25.756Z,29.00
2022-08-26T12:50:53.222Z,28.90
2022-08-26T12:53:25.633Z,29.00
2022-08-26T12:55:59.090Z,29.10
2022-08-26T12:58:44.539Z,29.10
2022-08-26T13:01:11.331Z,29.40
2022-08-26T13:03:44.434Z,29.40
2022-08-26T13:06:31.734Z,29.30
2022-08-26T13:09:07.430Z,29.20
2022-08-26T13:11:44.917Z,28.90
2022-08-26T13:14:21.271Z,29.00
2022-08-26T13:16:51.792Z,29.10
2022-08-26T13:19:25.375Z,29.20
2022-08-26T13:21:54.480Z,29.50
2022-08-26T13:24:26.510Z,29.70
2022-08-26T13:26:53.727Z,29.80
2022-08-26T13:29:20.687Z,29.80
2022-08-26T13:31:47.838Z,29.80
2022-08-26T13:34:20.591Z,29.70
2022-08-26T13:36:48.877Z,29.70
2022-08-26T13:39:16.207Z,29.60
2022-08-26T13:41:43.343Z,29.40
2022-08-26T13:44:10.878Z,29.20
2022-08-26T13:46:38.153Z,29.20
2022-08-26T13:49:05.440Z,29.20
2022-08-26T13:51:32.789Z,29.30
2022-08-26T13:54:09.183Z,29.30
2022-08-26T13:56:37.663Z,29.20
2022-08-26T13:59:05.600Z,29.10
2022-08-26T14:01:33.817Z,28.90
2022-08-26T14:04:00.546Z,28.80
2022-08-26T14:06:27.285Z,28.70
2022-08-26T14:08:54.883Z,28.60
2022-08-26T14:11:22.474Z,28.60
2022-08-26T14:13:49.219Z,28.50
2022-08-26T14:16:25.452Z,28.50
2022-08-26T14:18:52.828Z,28.50
2022-08-26T14:21:20.501Z,28.40
2022-08-26T14:23:47.467Z,28.30
2022-08-26T14:26:27.785Z,28.20
2022-08-26T14:28:59.655Z,28.00
2022-08-26T14:31:29.251Z,28.00
2022-08-26T14:33:58.776Z,28.00
2022-08-26T14:36:28.378Z,28.00
2022-08-26T14:39:04.888Z,28.00
2022-08-26T14:41:33.097Z,27.90
2022-08-26T14:44:03.895Z,28.00
2022-08-26T14:46:34.069Z,28.20
2022-08-26T14:49:05.248Z,28.40
2022-08-26T14:51:34.221Z,28.50
2022-08-26T14:54:13.121Z,28.50
2022-08-26T14:56:42.554Z,28.40
2022-08-26T14:59:10.247Z,28.30
2022-08-26T15:01:37.539Z,28.30
2022-08-26T15:04:04.648Z,28.30
2022-08-26T15:06:32.038Z,28.30
2022-08-26T15:08:59.853Z,28.40
2022-08-26T15:11:27.037Z,28.50
2022-08-26T15:13:54.189Z,28.60
2022-08-26T15:16:21.782Z,28.70
2022-08-26T15:18:49.290Z,28.80
2022-08-26T15:21:16.008Z,28.90
2022-08-26T15:23:43.239Z,29.10
2022-08-26T15:26:15.954Z,29.10
2022-08-26T15:28:43.243Z,29.10
2022-08-26T15:31:10.651Z,29.00
2022-08-26T15:33:38.362Z,28.90
2022-08-26T15:36:06.695Z,28.90
2022-08-26T15:38:37.362Z,28.70
2022-08-26T15:41:06.684Z,28.40
2022-08-26T15:43:33.565Z,28.10
2022-08-26T15:46:00.437Z,27.80
2022-08-26T15:48:27.315Z,27.70
2022-08-26T15:50:58.780Z,27.60
2022-08-26T15:53:26.292Z,27.50
2022-08-26T15:55:55.109Z,27.40
2022-08-26T15:58:27.031Z,27.30
2022-08-26T16:00:54.987Z,27.30
2022-08-26T16:03:22.734Z,27.30
2022-08-26T16:05:49.574Z,27.30
2022-08-26T16:08:16.718Z,27.30
2022-08-26T16:10:50.065Z,27.20
2022-08-26T16:13:19.558Z,27.10
2022-08-26T16:15:47.690Z,27.00
2022-08-26T16:18:15.578Z,26.90
2022-08-26T16:21:12.470Z,26.90
2022-08-26T16:23:38.354Z,27.00
2022-08-26T16:26:17.085Z,26.90
2022-08-26T16:28:44.441Z,26.90
2022-08-26T16:31:12.008Z,26.90
2022-08-26T16:33:39.185Z,26.90
2022-08-26T16:36:06.929Z,26.90
2022-08-26T16:38:34.066Z,26.90
2022-08-26T16:41:01.567Z,26.80
2022-08-26T16:43:28.791Z,26.70
2022-08-26T16:45:55.909Z,26.70
2022-08-26T16:48:23.632Z,26.60
2022-08-26T16:50:51.918Z,26.60
2022-08-26T16:53:19.000Z,26.60
2022-08-26T16:55:50.403Z,26.60
2022-08-26T16:58:18.143Z,26.50
2022-08-26T17:00:45.306Z,26.50
2022-08-26T17:03:12.478Z,26.50
2022-08-26T17:05:40.112Z,26.50
2022-08-26T17:08:07.366Z,26.40
2022-08-26T17:10:34.576Z,26.40
2022-08-26T17:13:01.523Z,26.40
2022-08-26T17:15:28.752Z,26.40
2022-08-26T17:17:56.733Z,26.30
2022-08-26T17:20:25.176Z,26.30
2022-08-26T17:22:54.409Z,26.30
2022-08-26T17:25:31.905Z,26.30
2022-08-26T17:27:59.621Z,26.40
2022-08-26T17:30:26.904Z,26.50
2022-08-26T17:32:54.422Z,26.60
2022-08-26T17:35:22.065Z,26.70
2022-08-26T17:37:49.082Z,26.60
2022-08-26T17:40:22.753Z,26.50
2022-08-26T17:42:50.078Z,26.40
2022-08-26T17:45:18.148Z,26.20
2022-08-26T17:47:45.260Z,26.10
2022-08-26T17:50:16.231Z,25.90
2022-08-26T17:52:43.961Z,25.80
2022-08-26T17:55:13.848Z,25.60
2022-08-26T17:57:44.171Z,25.40
2022-08-26T18:00:23.323Z,25.30
2022-08-26T18:02:50.097Z,25.10
2022-08-26T18:05:18.260Z,25.00
2022-08-26T18:07:45.089Z,24.90
2022-08-26T18:10:15.504Z,24.80
2022-08-26T18:12:42.980Z,24.80
2022-08-26T18:15:12.576Z,24.70
2022-08-26T18:17:40.409Z,24.70
2022-08-26T18:20:10.518Z,24.60
2022-08-26T18:22:37.292Z,24.50
2022-08-26T18:25:05.518Z,24.40
2022-08-26T18:27:33.107Z,24.40
2022-08-26T18:29:59.964Z,24.30
2022-08-26T18:32:27.028Z,24.20
2022-08-26T18:34:53.817Z,24.10
2022-08-26T18:37:20.920Z,24.10
2022-08-26T18:39:48.579Z,23.90
2022-08-26T18:42:15.404Z,23.90
2022-08-26T18:44:42.143Z,23.80
2022-08-26T18:47:09.318Z,23.80
2022-08-26T18:49:36.497Z,23.70
2022-08-26T18:52:04.429Z,23.70
2022-08-26T18:54:31.321Z,23.70
2022-08-26T18:56:58.412Z,23.60
2022-08-26T18:59:30.554Z,23.60
2022-08-26T19:01:57.896Z,23.60
2022-08-26T19:04:24.800Z,23.50
2022-08-26T19:06:52.996Z,23.30
2022-08-26T19:09:20.906Z,23.10
2022-08-26T19:11:49.629Z,22.90
2022-08-26T19:14:17.717Z,22.70
2022-08-26T19:16:47.240Z,22.50
2022-08-26T19:19:15.075Z,22.30
2022-08-26T19:21:42.097Z,22.10
2022-08-26T19:24:17.208Z,21.80
2022-08-26T19:26:46.356Z,21.10
2022-08-26T19:29:14.106Z,20.10
2022-08-26T19:31:42.174Z,19.10
2022-08-26T19:34:11.804Z,18.30
2022-08-26T19:36:38.841Z,17.10
2022-08-26T19:39:09.905Z,16.50
2022-08-26T19:41:39.150Z,16.00
2022-08-26T19:44:10.986Z,16.00
2022-08-26T19:49:06.315Z,16.30
2022-08-26T19:51:35.549Z,16.40
2022-08-26T19:54:03.176Z,16.40
2022-08-26T19:56:30.440Z,16.40
2022-08-26T19:58:58.418Z,16.40
2022-08-26T20:01:26.560Z,16.50
2022-08-26T20:03:57.202Z,16.60
2022-08-26T20:06:25.086Z,16.80
2022-08-26T20:08:53.868Z,16.80
2022-08-26T20:11:22.000Z,17.10
2022-08-26T20:13:48.918Z,17.00
2022-08-26T20:16:16.988Z,17.00
2022-08-26T20:19:06.476Z,16.90
2022-08-26T20:21:35.884Z,16.90
2022-08-26T20:24:07.256Z,17.00
2022-08-26T20:26:36.632Z,17.10
2022-08-26T20:29:05.376Z,17.30
2022-08-26T20:31:32.686Z,17.30
2022-08-26T20:33:59.745Z,17.20
2022-08-26T20:36:27.936Z,17.30
2022-08-26T20:38:56.336Z,17.30
2022-08-26T20:41:25.734Z,17.40
2022-08-26T20:43:53.467Z,17.40
2022-08-26T20:46:24.549Z,17.40
2022-08-26T20:48:52.665Z,17.40
2022-08-26T20:51:20.698Z,17.40
2022-08-26T20:53:47.645Z,17.40
2022-08-26T20:56:16.075Z,17.40
2022-08-26T20:58:43.270Z,17.40
2022-08-26T21:01:18.601Z,17.50
2022-08-26T21:03:46.188Z,17.60
2022-08-26T21:06:13.119Z,17.60
2022-08-26T21:08:42.627Z,17.60
2022-08-26T21:11:11.033Z,17.60
2022-08-26T21:14:03.416Z,17.50
2022-08-26T21:16:26.596Z,17.40
2022-08-26T21:18:53.675Z,17.40
2022-08-26T21:21:25.050Z,17.50
2022-08-26T21:23:52.241Z,17.50
2022-08-26T21:26:19.084Z,17.60
2022-08-26T21:28:46.519Z,17.60
2022-08-26T21:31:17.226Z,17.30
2022-08-26T21:33:44.551Z,17.20
2022-08-26T21:36:13.334Z,17.20
2022-08-26T21:38:41.140Z,17.20
2022-08-26T21:41:20.661Z,17.30
2022-08-26T21:43:49.021Z,17.30
2022-08-26T21:46:19.240Z,17.30
2022-08-26T21:48:51.478Z,17.30
2022-08-26T21:51:21.099Z,17.30
2022-08-26T21:53:48.484Z,17.30
2022-08-26T21:56:17.780Z,17.30
2022-08-26T21:58:47.169Z,17.30
2022-08-26T22:01:21.547Z,17.30
2022-08-26T22:03:49.749Z,17.40
2022-08-26T22:06:19.925Z,17.40
2022-08-26T22:08:47.591Z,17.50
2022-08-26T22:11:15.849Z,17.40
2022-08-26T22:13:43.694Z,17.40
2022-08-26T22:16:11.446Z,17.40
2022-08-26T22:18:39.472Z,17.40
2022-08-26T22:21:10.035Z,17.40
2022-08-26T22:23:38.355Z,17.40
2022-08-26T22:26:07.841Z,17.40
2022-08-26T22:28:36.188Z,17.30
2022-08-26T22:31:03.301Z,17.30
2022-08-26T22:33:30.195Z,17.40
2022-08-26T22:36:06.684Z,17.30
2022-08-26T22:38:34.936Z,17.40
2022-08-26T22:41:05.385Z,17.40
2022-08-26T22:43:35.520Z,17.50
2022-08-26T22:46:02.427Z,17.50
2022-08-26T22:48:29.546Z,17.60
2022-08-26T22:51:00.206Z,17.50
2022-08-26T22:53:28.212Z,17.50
2022-08-26T22:55:56.385Z,17.50
2022-08-26T22:58:28.011Z,17.50
2022-08-26T23:00:59.335Z,17.60
2022-08-26T23:03:27.712Z,17.60
2022-08-26T23:05:56.196Z,17.60
2022-08-26T23:08:24.904Z,17.70
2022-08-26T23:10:53.539Z,17.70
2022-08-26T23:13:21.039Z,17.60
2022-08-26T23:15:48.101Z,17.60
2022-08-26T23:18:15.583Z,17.60
2022-08-26T23:20:42.780Z,17.60
2022-08-26T23:23:09.853Z,17.70
2022-08-26T23:25:39.155Z,17.70
2022-08-26T23:28:13.561Z,17.70
2022-08-26T23:30:40.459Z,17.80
2022-08-26T23:33:07.490Z,17.80
2022-08-26T23:35:34.603Z,17.90
2022-08-26T23:38:02.647Z,17.90
2022-08-26T23:40:32.850Z,17.90
2022-08-26T23:43:03.646Z,18.00
2022-08-26T23:45:31.727Z,18.00
2022-08-26T23:47:59.644Z,18.00
2022-08-26T23:50:48.524Z,18.00
2022-08-26T23:53:20.075Z,18.10
2022-08-26T23:55:52.268Z,18.10
2022-08-26T23:58:21.269Z,18.10
